Cardigan, United Kingdom
Current Conditions -  °F | °C
As of 9:50 PM on Tuesday 21 Oct 2014 (Local Time) from EGOP Reporting Station
Few Clouds Few Clouds  
Wind Chill: 50°   Ceiling: Unl
Heat Index: 50°   Visibility: 6mi
Dew Point: 41°   Wind: 18mph
Humidity: 71%   Direction: 310°NW
Pressure: 30.24"   Gusts: NA
Location:  52.09°N, 4.66°W
Report Text: EGOP 212050Z AUTO 31016KT 9999 // FEW050/// 10/05 Q1024
Loading
Personal Weather Stations






























Interactive Weather Map
Tropical Storm Tracking
New forecast layout! Learn more

10-Day Weather Forecast

Advertisements
Track Severe Weather on mobile